Time;durP1;ratioP1;P1;durP2;ratioP2;P2;SDS_P1;SDS_P2;PMS_P1;PMS_P2;Temp;Humidity;BMP_temperature;BMP_pressure;BME280_temperature;BME280_humidity;BME280_pressure;Samples;Min_cycle;Max_cycle;Signal;HPM_P1;HPM_P2
2021/08/07 00:07:26;;;;;;;6.75;1.92;;;;;;;16.61;78.74;99585.66;20988117;28;20044;-70
2021/08/07 00:17:28;;;;;;;2.88;1.80;;;;;;;16.34;78.92;99571.28;20988383;28;20044;-70
2021/08/07 00:27:30;;;;;;;4.43;1.77;;;;;;;16.05;80.70;99576.28;20987523;28;20044;-70
2021/08/07 00:37:32;;;;;;;4.82;1.92;;;;;;;15.86;81.56;99583.44;20985923;28;20044;-70
2021/08/07 00:47:35;;;;;;;5.57;1.80;;;;;;;15.60;82.11;99584.69;20985832;28;20044;-70
2021/08/07 00:57:37;;;;;;;5.05;1.55;;;;;;;15.61;82.21;99571.41;20985479;28;20437;-70
2021/08/07 01:08:09;;;;;;;5.30;1.48;;;;;;;15.63;82.22;99564.31;20981633;28;20049;-70
2021/08/07 01:18:14;;;;;;;7.43;1.50;;;;;;;15.66;83.21;99573.84;20984260;28;20045;-70
2021/08/07 01:28:18;;;;;;;5.88;1.50;;;;;;;15.84;82.37;99580.84;20983780;28;20102;-71
2021/08/07 01:38:20;;;;;;;3.55;1.40;;;;;;;16.01;81.55;99574.72;20982933;28;20041;-69
2021/08/07 01:48:35;;;;;;;2.67;1.30;;;;;;;16.13;81.23;99554.75;20983380;28;20475;-69
2021/08/07 01:58:44;;;;;;;3.67;1.40;;;;;;;16.14;81.51;99543.25;20983285;28;20475;-71
2021/08/07 02:08:46;;;;;;;4.65;1.60;;;;;;;16.15;81.63;99540.53;20982447;28;20057;-72
2021/08/07 02:18:48;;;;;;;3.97;1.30;;;;;;;16.24;81.72;99539.22;20986566;28;20412;-72
2021/08/07 02:28:51;;;;;;;5.13;1.85;;;;;;;16.31;81.88;99539.72;20996814;28;20071;-71
2021/08/07 02:38:53;;;;;;;3.47;1.50;;;;;;;16.39;81.65;99519.06;20995515;28;20041;-70
2021/08/07 02:48:56;;;;;;;5.03;1.52;;;;;;;16.41;80.99;99522.44;20995487;28;20102;-70
2021/08/07 02:58:58;;;;;;;3.55;1.38;;;;;;;16.37;80.73;99523.53;20994802;28;20098;-70
2021/08/07 03:09:00;;;;;;;8.20;1.60;;;;;;;16.37;81.26;99513.81;20993581;28;20494;-71
2021/08/07 03:19:02;;;;;;;2.88;1.35;;;;;;;16.35;80.98;99493.72;20993146;28;20090;-71
2021/08/07 03:29:05;;;;;;;4.20;1.85;;;;;;;16.34;81.47;99503.44;20992407;28;20048;-71
2021/08/07 03:39:07;;;;;;;6.43;1.70;;;;;;;16.25;81.91;99484.59;20991148;28;20102;-71
2021/08/07 03:49:08;;;;;;;4.40;1.90;;;;;;;16.32;81.87;99484.16;20990812;28;20050;-71
2021/08/07 03:59:10;;;;;;;6.15;1.70;;;;;;;16.30;81.39;99480.75;20989830;28;20053;-70
2021/08/07 04:09:13;;;;;;;4.75;1.83;;;;;;;16.39;81.52;99460.94;20988612;28;20040;-70
2021/08/07 04:19:15;;;;;;;4.40;1.65;;;;;;;16.33;82.40;99469.16;20988063;28;20044;-70
2021/08/07 04:29:17;;;;;;;6.28;1.80;;;;;;;16.38;81.80;99467.13;20988759;28;20538;-70
2021/08/07 04:39:18;;;;;;;4.70;1.80;;;;;;;16.42;81.53;99469.50;20987503;28;20044;-70
2021/08/07 04:49:20;;;;;;;4.13;1.90;;;;;;;16.51;80.89;99462.03;20987559;28;20049;-70
2021/08/07 04:59:22;;;;;;;5.63;2.05;;;;;;;16.55;80.54;99459.13;20986544;28;20540;-70
2021/08/07 05:09:24;;;;;;;6.50;1.80;;;;;;;16.72;80.46;99454.72;20985338;28;20093;-70
2021/08/07 05:19:25;;;;;;;5.25;1.45;;;;;;;16.88;79.82;99450.28;20986003;28;20049;-70
2021/08/07 05:29:27;;;;;;;5.70;1.77;;;;;;;17.03;80.30;99448.56;20985991;28;20048;-71
2021/08/07 05:39:29;;;;;;;4.82;1.50;;;;;;;17.16;79.35;99460.16;20984518;28;20062;-70
2021/08/07 05:49:31;;;;;;;4.75;1.50;;;;;;;17.24;78.71;99468.47;20984193;28;20041;-70
2021/08/07 05:59:33;;;;;;;5.55;1.70;;;;;;;17.41;78.21;99459.56;20997684;28;20140;-71
2021/08/07 06:09:35;;;;;;;5.80;1.92;;;;;;;17.52;77.58;99462.41;20994278;28;20044;-70
2021/08/07 06:19:37;;;;;;;6.22;1.83;;;;;;;17.67;76.54;99445.63;20998100;28;20555;-70
2021/08/07 06:29:38;;;;;;;4.60;1.67;;;;;;;17.85;76.12;99442.84;20997275;28;20044;-70
2021/08/07 06:39:41;;;;;;;4.50;1.73;;;;;;;17.89;75.41;99424.03;20995940;28;20068;-70
2021/08/07 06:49:42;;;;;;;4.90;2.00;;;;;;;18.17;74.84;99432.91;20995522;28;20067;-70
2021/08/07 06:59:45;;;;;;;5.40;1.90;;;;;;;18.56;74.52;99439.28;20994697;28;20049;-70
2021/08/07 07:09:47;;;;;;;3.85;1.73;;;;;;;19.00;73.36;99435.59;21015558;28;20040;-70
2021/08/07 07:19:48;;;;;;;5.57;1.70;;;;;;;19.39;71.55;99453.31;20999007;28;20045;-70
2021/08/07 07:29:50;;;;;;;5.63;2.03;;;;;;;19.43;70.25;99460.97;21076136;28;20112;-70
2021/08/07 07:39:52;;;;;;;4.85;1.70;;;;;;;20.09;68.04;99435.22;21039868;28;20407;-70
2021/08/07 07:49:54;;;;;;;5.47;2.15;;;;;;;20.66;65.52;99402.78;20991494;28;20439;-70
2021/08/07 07:59:56;;;;;;;3.40;1.80;;;;;;;21.07;63.82;99409.50;20990198;28;20522;-70
2021/08/07 08:09:57;;;;;;;4.43;1.40;;;;;;;21.27;62.60;99418.63;20988612;28;20041;-70
2021/08/07 08:20:00;;;;;;;8.07;1.55;;;;;;;21.32;61.83;99421.00;21033123;28;20120;-70
2021/08/07 08:30:02;;;;;;;5.30;1.52;;;;;;;21.42;62.12;99404.22;20987930;28;20418;-69
2021/08/07 08:40:06;;;;;;;4.13;1.00;;;;;;;21.73;58.65;99400.03;20912647;28;20046;-70
2021/08/07 08:50:10;;;;;;;3.77;1.30;;;;;;;21.83;55.43;99383.31;20821605;28;20045;-69
2021/08/07 09:00:12;;;;;;;3.50;1.10;;;;;;;22.00;55.44;99380.19;20821240;28;20523;-70
2021/08/07 09:10:15;;;;;;;6.28;1.40;;;;;;;22.12;55.04;99373.88;20824402;28;20122;-70
2021/08/07 09:20:27;;;;;;;14.50;1.88;;;;;;;22.73;54.07;99374.25;20902852;28;20079;-70
2021/08/07 09:30:32;;;;;;;3.80;1.33;;;;;;;23.26;55.75;99371.63;20901115;28;20057;-71
2021/08/07 09:40:47;;;;;;;7.45;1.27;;;;;;;23.23;55.19;99369.19;20902502;28;20128;-70
2021/08/07 09:50:48;;;;;;;4.43;1.40;;;;;;;23.22;55.82;99375.53;20901762;28;20151;-70
2021/08/07 10:00:50;;;;;;;4.53;1.30;;;;;;;23.59;55.01;99359.03;20900659;28;20517;-69
2021/08/07 10:11:08;;;;;;;6.43;1.40;;;;;;;23.53;53.52;99367.59;20900391;28;20056;-70
2021/08/07 10:21:11;;;;;;;2.78;1.20;;;;;;;23.51;54.39;99340.13;20900243;28;20053;-70
2021/08/07 10:31:19;;;;;;;4.85;1.58;;;;;;;23.29;54.95;99347.34;20895953;28;20103;-70
2021/08/07 10:41:26;;;;;;;3.45;1.40;;;;;;;23.25;54.54;99353.91;20905569;28;20483;-70
2021/08/07 10:51:29;;;;;;;6.78;1.40;;;;;;;22.93;55.38;99363.78;20914912;28;20115;-70
2021/08/07 11:01:31;;;;;;;8.13;2.10;;;;;;;22.48;57.03;99354.09;20911614;28;20446;-70
2021/08/07 11:11:33;;;;;;;4.43;1.57;;;;;;;21.96;57.17;99344.06;20912684;28;20072;-70
2021/08/07 11:21:51;;;;;;;3.67;1.45;;;;;;;21.88;58.48;99347.34;20912886;28;20511;-70
2021/08/07 11:32:24;;;;;;;4.25;1.30;;;;;;;21.84;59.05;99321.06;20910648;28;20053;-71
2021/08/07 11:42:33;;;;;;;4.25;1.65;;;;;;;21.84;59.69;99321.91;20894877;28;20049;-71
2021/08/07 11:52:35;;;;;;;6.15;1.70;;;;;;;21.47;61.09;99330.13;20908061;28;20041;-70
2021/08/07 12:02:37;;;;;;;3.97;1.50;;;;;;;21.24;64.11;99333.69;20903979;28;20499;-70
2021/08/07 12:12:48;;;;;;;4.80;1.58;;;;;;;20.85;66.01;99359.72;20907944;28;20588;-70
2021/08/07 12:23:01;;;;;;;4.97;1.58;;;;;;;20.53;70.77;99390.50;20905999;28;20071;-71
2021/08/07 12:33:20;;;;;;;4.80;1.23;;;;;;;20.05;71.51;99363.78;20882498;28;20099;-71
2021/08/07 12:43:28;;;;;;;3.50;1.23;;;;;;;19.86;70.84;99375.72;20905489;28;20045;-71
2021/08/07 12:53:44;;;;;;;5.13;1.88;;;;;;;19.78;73.25;99396.66;20904815;28;20454;-70
2021/08/07 13:03:52;;;;;;;3.83;1.60;;;;;;;19.60;75.00;99348.34;20902172;28;20462;-70
2021/08/07 13:14:00;;;;;;;4.15;1.65;;;;;;;19.38;75.92;99374.63;20902883;28;20056;-71
2021/08/07 13:24:03;;;;;;;5.53;1.67;;;;;;;19.06;76.33;99393.56;20902235;28;20045;-71
2021/08/07 13:34:05;;;;;;;4.00;1.73;;;;;;;19.22;76.31;99337.69;20896637;28;20095;-71
2021/08/07 13:44:06;;;;;;;4.40;2.08;;;;;;;19.26;74.72;99347.16;20901179;28;20099;-71
2021/08/07 13:54:08;;;;;;;4.75;1.75;;;;;;;19.19;74.92;99359.13;20900450;28;20552;-70
2021/08/07 14:04:10;;;;;;;3.60;1.70;;;;;;;19.54;72.61;99364.66;20898581;28;20056;-70
2021/08/07 14:14:15;;;;;;;5.53;2.33;;;;;;;19.69;70.99;99384.00;20903224;28;20099;-71
2021/08/07 14:24:17;;;;;;;3.38;1.20;;;;;;;19.80;69.46;99370.00;20915437;28;20075;-71
2021/08/07 14:34:19;;;;;;;4.38;1.70;;;;;;;20.14;68.65;99398.53;20915313;28;20041;-71
2021/08/07 14:44:21;;;;;;;3.08;1.20;;;;;;;20.18;66.98;99418.63;20914362;28;20049;-70
2021/08/07 14:54:23;;;;;;;3.65;1.55;;;;;;;19.94;67.63;99420.38;20913655;28;20060;-71
2021/08/07 15:04:25;;;;;;;4.72;1.30;;;;;;;19.89;67.59;99418.03;20911632;28;20091;-71
2021/08/07 15:14:27;;;;;;;3.50;1.20;;;;;;;19.96;67.16;99407.81;20911700;28;20041;-71
2021/08/07 15:24:29;;;;;;;3.45;1.35;;;;;;;20.22;66.31;99388.22;20908388;28;20051;-71
2021/08/07 15:34:31;;;;;;;3.35;1.35;;;;;;;20.23;66.00;99336.75;20909152;28;20053;-71
2021/08/07 15:44:33;;;;;;;3.35;1.10;;;;;;;20.49;65.62;99368.59;20908481;28;20419;-71
2021/08/07 15:54:35;;;;;;;2.42;1.20;;;;;;;20.63;65.05;99338.31;20907521;28;20044;-71
2021/08/07 16:04:37;;;;;;;3.85;1.08;;;;;;;20.38;64.98;99331.28;20906295;28;20414;-71
2021/08/07 16:14:39;;;;;;;3.47;1.30;;;;;;;19.88;67.19;99336.63;20906958;28;20053;-71
2021/08/07 16:24:41;;;;;;;3.38;1.27;;;;;;;20.41;65.17;99355.84;20904894;28;20049;-71
2021/08/07 16:34:43;;;;;;;2.67;1.10;;;;;;;19.91;65.87;99368.28;20904702;28;20198;-71
2021/08/07 16:44:45;;;;;;;3.33;1.40;;;;;;;20.18;65.58;99381.41;20903263;28;20045;-71
2021/08/07 16:54:48;;;;;;;2.53;1.20;;;;;;;20.14;64.94;99381.75;20903761;28;20621;-69
2021/08/07 17:04:50;;;;;;;3.03;1.30;;;;;;;20.51;64.42;99387.09;20900640;28;20063;-69
2021/08/07 17:14:52;;;;;;;3.42;1.50;;;;;;;20.01;65.30;99372.94;20901743;28;20489;-69
2021/08/07 17:24:53;;;;;;;3.78;1.38;;;;;;;20.30;64.82;99362.88;20900432;28;20044;-69
2021/08/07 17:34:57;;;;;;;;;;;;;;;20.19;64.04;99350.38;20900851;28;20461;-69
2021/08/07 17:44:59;;;;;;;2.95;1.33;;;;;;;20.16;65.00;99371.84;20903621;28;19924;-70
2021/08/07 17:55:01;;;;;;;5.13;1.27;;;;;;;19.86;65.15;99356.28;20914602;28;20045;-69
2021/08/07 18:05:03;;;;;;;2.53;1.10;;;;;;;19.84;65.25;99345.78;20916793;28;20274;-69
2021/08/07 18:15:06;;;;;;;1.88;1.00;;;;;;;19.34;67.44;99378.44;20898023;28;20049;-69
2021/08/07 18:25:09;;;;;;;1.77;1.00;;;;;;;18.85;70.15;99397.66;20915792;28;20453;-69
2021/08/07 18:35:11;;;;;;;5.28;1.17;;;;;;;18.53;71.17;99407.66;20912425;28;20045;-69
2021/08/07 18:45:13;;;;;;;2.97;1.00;;;;;;;18.17;73.09;99406.44;20914447;28;20049;-68
2021/08/07 18:55:15;;;;;;;4.13;1.20;;;;;;;18.08;74.02;99401.69;20912013;28;20049;-69
2021/08/07 19:05:21;;;;;;;2.47;1.20;;;;;;;17.93;74.69;99392.91;20894327;28;20044;-68
2021/08/07 19:15:23;;;;;;;3.38;1.30;;;;;;;17.79;75.98;99428.19;20912078;28;20475;-68
2021/08/07 19:25:25;;;;;;;2.28;0.88;;;;;;;17.65;76.40;99436.91;20909567;28;20103;-68
2021/08/07 19:35:27;;;;;;;3.13;1.00;;;;;;;17.64;76.86;99453.75;20908624;28;20045;-69
2021/08/07 19:45:32;;;;;;;3.05;1.00;;;;;;;17.65;76.96;99447.50;20908283;28;20063;-69
2021/08/07 19:55:34;;;;;;;6.13;1.30;;;;;;;17.55;77.35;99464.88;20890418;28;20051;-69
2021/08/07 20:05:35;;;;;;;3.70;1.00;;;;;;;17.56;77.43;99439.28;20907199;28;20045;-69
2021/08/07 20:15:37;;;;;;;2.38;1.02;;;;;;;17.51;77.79;99459.88;20905746;28;20562;-69
2021/08/07 20:25:40;;;;;;;4.00;1.30;;;;;;;17.48;77.93;99483.84;20905378;28;20080;-69
2021/08/07 20:35:41;;;;;;;3.15;1.10;;;;;;;17.34;79.05;99522.59;20903220;28;20044;-69
2021/08/07 20:45:44;;;;;;;3.92;1.70;;;;;;;17.32;78.68;99550.06;20904373;28;20049;-69
2021/08/07 20:55:46;;;;;;;1.75;0.73;;;;;;;17.19;79.27;99582.47;20902993;28;20045;-70
2021/08/07 21:05:48;;;;;;;2.28;1.08;;;;;;;17.08;79.93;99586.69;20902916;28;20045;-69
2021/08/07 21:15:50;;;;;;;2.58;1.10;;;;;;;17.07;79.73;99579.69;20901832;28;20048;-70
2021/08/07 21:25:51;;;;;;;2.40;1.10;;;;;;;16.89;81.20;99573.63;20901044;28;20049;-69
2021/08/07 21:35:53;;;;;;;3.28;1.38;;;;;;;16.83;81.20;99573.97;20900787;28;20526;-69
2021/08/07 21:45:57;;;;;;;2.60;1.20;;;;;;;16.77;81.46;99591.03;20900708;28;20388;-70
2021/08/07 21:55:59;;;;;;;6.70;2.35;;;;;;;16.73;82.24;99604.47;20900340;28;20048;-70
2021/08/07 22:06:01;;;;;;;3.00;1.40;;;;;;;16.83;80.58;99626.84;20900015;28;20120;-70
2021/08/07 22:16:03;;;;;;;2.80;1.38;;;;;;;16.80;79.30;99627.00;20896887;28;20557;-69
2021/08/07 22:26:05;;;;;;;3.58;1.15;;;;;;;16.35;78.48;99636.38;20892045;28;20415;-70
2021/08/07 22:36:06;;;;;;;3.60;0.90;;;;;;;15.97;83.35;99619.84;20901195;28;20045;-69
2021/08/07 22:46:08;;;;;;;3.60;0.95;;;;;;;15.89;83.05;99655.41;20914290;28;20041;-70
2021/08/07 22:56:10;;;;;;;1.75;0.77;;;;;;;15.58;84.72;99661.28;20912711;28;20057;-69
2021/08/07 23:06:12;;;;;;;2.58;0.77;;;;;;;15.50;83.89;99687.19;20911605;28;20099;-69
2021/08/07 23:16:14;;;;;;;4.07;0.85;;;;;;;15.45;83.58;99696.25;20911679;28;20064;-69
2021/08/07 23:26:16;;;;;;;2.38;0.73;;;;;;;15.32;83.03;99724.97;20911065;28;20080;-69
2021/08/07 23:36:18;;;;;;;4.47;0.70;;;;;;;15.27;83.59;99745.41;20909628;28;20057;-69
2021/08/07 23:46:20;;;;;;;3.63;1.08;;;;;;;15.20;85.39;99749.28;20908428;28;20099;-69
2021/08/07 23:56:22;;;;;;;3.28;0.80;;;;;;;15.12;85.03;99761.00;20907307;28;20511;-70
